Flight Track Log - Related Links

Times and Time Zones

All times are in EDT time to prevent confusion due to time zone crossing. See the N575EW flight status page for this flight to view local times or setup timezone preferences in your user account.

Time Position Orientation Groundspeed Altitude Reporting Facility
EDT Latitude Longitude Course Direction KTS MPH feet Rate Location/Type
Wed 01:50:13 PM 41.3267 -95.7689 355° North 185 213 3,000  Level Minneapolis Center
Wed 01:51:13 PM 41.3761 -95.7911 341° North 195 224 4,700 1,820 Climbing Minneapolis Center
Wed 01:52:15 PM 41.4150 -95.8533 310° West 219 252 6,700 2,098 Climbing Minneapolis Center
Wed 01:53:16 PM 41.4531 -95.9403 300° West 227 261 9,000 2,132 Climbing Minneapolis Center
Wed 01:54:16 PM 41.4850 -96.0144 300° West 237 273 11,000 1,857 Climbing Minneapolis Center
Wed 01:55:22 PM 41.5233 -96.0856 306° West 241 277 12,900 1,500 Climbing Minneapolis Center
Wed 01:56:36 PM 41.5611 -96.1606 304° West 244 281 14,500 1,588 Climbing Minneapolis Center
Wed 01:57:38 PM 41.6089 -96.2542 304° West 252 290 16,500 1,839 Climbing Minneapolis Center
Wed 01:58:40 PM 41.6569 -96.3492 304° West 256 295 18,300 1,597 Climbing Minneapolis Center
Wed 01:59:42 PM 41.6975 -96.4317 303° West 263 303 19,800 1,440 Climbing Minneapolis Center
Wed 02:00:45 PM 41.7389 -96.5150 304° West 267 307 21,300 1,440 Climbing Minneapolis Center
Wed 02:01:47 PM 41.7803 -96.5978 304° West 268 308 22,800 823 Climbing Minneapolis Center
Wed 02:02:49 PM 41.8244 -96.6853 304° West 277 319 23,000 629 Climbing Minneapolis Center
Wed 02:03:51 PM 41.8733 -96.7831 304° West 306 352 24,100 1,258 Climbing Minneapolis Center
Wed 02:04:53 PM 41.9283 -96.8969 303° West 306 352 25,600 1,113 Climbing Minneapolis Center
Wed 02:05:55 PM 41.9650 -96.9717 303° West 302 348 26,400 968 Climbing Minneapolis Center
Wed 02:06:57 PM 42.0219 -97.0864 304° West 306 352 27,600 1,016 Climbing Minneapolis Center
Wed 02:07:59 PM 42.0692 -97.1817 304° West 306 352 28,500 919 Climbing Minneapolis Center
Wed 02:09:01 PM 42.1147 -97.2769 303° West 305 351 29,500 871 Climbing Minneapolis Center
Wed 02:10:03 PM 42.1614 -97.3731 303° West 305 351 30,300 816 Climbing Minneapolis Center
Wed 02:11:06 PM 42.2186 -97.4892 304° West 309 356 31,200 816 Climbing Minneapolis Center
Wed 02:12:08 PM 42.2664 -97.5872 303° West 312 359 32,000 726 Climbing Minneapolis Center
Wed 02:13:10 PM 42.3122 -97.6861 302° West 311 358 32,700 677 Climbing Minneapolis Center
Wed 02:14:12 PM 42.3606 -97.7850 304° West 313 360 33,400 726 Climbing Minneapolis Center
Wed 02:15:14 PM 42.4133 -97.8961 303° West 315 362 34,200 677 Climbing Minneapolis Center
Wed 02:16:16 PM 42.4594 -97.9942 303° West 311 358 34,800 484 Climbing Minneapolis Center
Wed 02:17:18 PM 42.5069 -98.0933 303° West 313 360 35,200 484 Climbing Minneapolis Center
Wed 02:18:20 PM 42.5550 -98.1928 303° West 315 362 35,800 387 Climbing Minneapolis Center
Wed 02:19:22 PM 42.6011 -98.2917 302° West 311 358 36,000 97 Climbing Minneapolis Center
Wed 02:20:24 PM 42.6594 -98.4158 303° West 323 372 36,000  Level Minneapolis Center
Wed 02:21:27 PM 42.7089 -98.5211 303° West 330 380 36,000  Level Minneapolis Center
Wed 02:22:29 PM 42.7597 -98.6294 303° West 337 388 36,000  Level Minneapolis Center
Wed 02:23:31 PM 42.8097 -98.7397 302° West 342 394 36,000  Level Minneapolis Center
Wed 02:24:33 PM 42.8606 -98.8492 302° West 342 394 36,000  Level Minneapolis Center
Wed 02:25:35 PM 42.9122 -98.9600 303° West 346 398 36,000  Level Minneapolis Center
Wed 02:26:37 PM 42.9733 -99.0944 302° West 347 399 36,000  Level Minneapolis Center
Wed 02:27:39 PM 43.0250 -99.2058 302° West 348 400 36,000  Level Minneapolis Center
Wed 02:28:41 PM 43.0758 -99.3175 302° West 347 399 36,000  Level Minneapolis Center
Wed 02:29:56 PM 43.1367 -99.4519 302° West 346 398 36,000  Level Minneapolis Center
Wed 02:30:58 PM 43.1878 -99.5650 302° West 347 399 36,000  Level Minneapolis Center
Wed 02:32:00 PM 43.2472 -99.6989 301° West 345 397 36,000  Level Minneapolis Center
Wed 02:33:02 PM 43.2975 -99.8086 302° West 342 394 36,000  Level Minneapolis Center
Wed 02:34:04 PM 43.3464 -99.9197 301° West 341 392 36,000  Level Minneapolis Center
Wed 02:35:18 PM 43.3944 -100.0281 301° West 337 388 36,000  Level Minneapolis Center
Wed 02:36:21 PM 43.4531 -100.1581 302° West 333 383 36,000  Level Minneapolis Center
Wed 02:37:23 PM 43.4997 -100.2669 301° West 331 381 36,000  Level Minneapolis Center
Wed 02:38:25 PM 43.5472 -100.3744 301° West 329 379 36,000  Level Minneapolis Center
Wed 02:39:27 PM 43.6039 -100.5053 301° West 330 380 36,000  Level Minneapolis Center
Wed 02:40:29 PM 43.6506 -100.6117 301° West 326 375 36,000  Level Minneapolis Center
Wed 02:41:31 PM 43.6975 -100.7206 301° West 328 377 36,000  Level Minneapolis Center
Wed 02:42:33 PM 43.7447 -100.8286 301° West 328 377 36,000  Level Minneapolis Center
Wed 02:43:35 PM 43.7908 -100.9386 300° West 329 379 36,000  Level Minneapolis Center
Wed 02:44:37 PM 43.8381 -101.0472 301° West 329 379 36,000  Level Minneapolis Center
Wed 02:45:39 PM 43.8856 -101.1575 301° West 331 381 36,000  Level Minneapolis Center
Wed 02:46:42 PM 43.9417 -101.2917 300° West 333 383 36,000  Level Minneapolis Center
Wed 02:47:44 PM 43.9892 -101.4042 300° West 335 386 36,000  Level Minneapolis Center
Wed 02:48:46 PM 44.0375 -101.5156 301° West 336 387 36,000  Level Minneapolis Center
Wed 02:49:48 PM 44.0842 -101.6286 300° West 336 387 36,000  Level Minneapolis Center
Wed 02:50:50 PM 44.1311 -101.7392 301° West 335 386 36,000  Level Minneapolis Center
Wed 02:51:52 PM 44.1772 -101.8503 300° West 334 384 36,000  Level Minneapolis Center
Wed 02:52:54 PM 44.2328 -101.9836 300° West 332 382 36,000  Level Minneapolis Center
Wed 02:54:08 PM 44.2817 -102.0972 301° West 334 384 36,000  Level Minneapolis Center
Wed 02:55:11 PM 44.3367 -102.2317 300° West 334 384 36,000  Level Minneapolis Center
Wed 02:56:13 PM 44.3831 -102.3450 300° West 335 386 36,000  Level Minneapolis Center
Wed 02:57:15 PM 44.4294 -102.4581 300° West 335 386 36,000  Level Minneapolis Center
Wed 02:58:17 PM 44.4753 -102.5714 300° West 335 386 36,000  Level Minneapolis Center
Wed 02:59:19 PM 44.5311 -102.7067 300° West 334 384 36,000  Level Minneapolis Center
Wed 03:00:22 PM 44.5758 -102.8206 299° West 334 384 36,000  Level Minneapolis Center
Wed 03:01:36 PM 44.6281 -102.9547 299° West 334 384 36,000  Level Denver Center
Wed 03:02:39 PM 44.6731 -103.0692 299° West 335 386 36,000  Level Denver Center
Wed 03:03:53 PM 44.7197 -103.1844 300° West 337 388 36,000  Level Denver Center
Wed 03:04:55 PM 44.7722 -103.3200 299° West 331 381 36,000  Level Denver Center
Wed 03:05:57 PM 44.8275 -103.4572 300° West 335 386 36,000  Level Denver Center
Wed 03:06:59 PM 44.8758 -103.5772 300° West 333 383 36,000  Level Salt Lake Center
Wed 03:08:01 PM 44.9189 -103.6875 299° West 336 387 36,000  Level Salt Lake Center
Wed 03:09:03 PM 44.9686 -103.8156 299° West 334 384 36,000  Level Salt Lake Center
Wed 03:10:05 PM 45.0117 -103.9269 299° West 335 386 36,000  Level Salt Lake Center
Wed 03:11:07 PM 45.0608 -104.0553 299° West 335 386 36,000  Level Salt Lake Center
Wed 03:12:09 PM 45.1036 -104.1656 299° West 336 387 36,000  Level Salt Lake Center
Wed 03:13:11 PM 45.1453 -104.2747 298° West 331 381 36,000  Level Salt Lake Center
Wed 03:14:13 PM 45.1947 -104.4050 298° West 335 386 36,000  Level Salt Lake Center
Wed 03:15:16 PM 45.2397 -104.5264 298° West 333 383 36,000  Level Salt Lake Center
Wed 03:16:18 PM 45.2806 -104.6306 299° West 333 383 36,000  Level Salt Lake Center
Wed 03:17:20 PM 45.3328 -104.7711 298° West 336 387 36,000  Level Salt Lake Center
Wed 03:18:22 PM 45.3750 -104.8850 298° West 331 381 36,000  Level Salt Lake Center
Wed 03:19:24 PM 45.4178 -105.0011 298° West 330 380 36,000  Level Salt Lake Center
Wed 03:20:26 PM 45.4611 -105.1147 299° West 329 379 36,000  Level Salt Lake Center
Wed 03:21:28 PM 45.5036 -105.2311 298° West 331 381 36,000  Level Salt Lake Center
Wed 03:22:30 PM 45.5464 -105.3475 298° West 332 382 36,000  Level Salt Lake Center
Wed 03:23:32 PM 45.5983 -105.4867 298° West 332 382 36,000  Level Salt Lake Center
Wed 03:24:34 PM 45.6403 -105.6033 297° West 333 383 36,000  Level Salt Lake Center
Wed 03:25:36 PM 45.6819 -105.7211 297° West 333 383 36,000  Level Salt Lake Center
Wed 03:26:38 PM 45.7242 -105.8375 297° West 331 381 36,000  Level Salt Lake Center
Wed 03:27:40 PM 45.7672 -105.9533 298° West 331 381 36,000  Level Salt Lake Center
Wed 03:28:42 PM 45.8144 -106.0906 296° West 325 374 36,000  Level Salt Lake Center
Wed 03:29:44 PM 45.8550 -106.2042 297° West 323 372 36,000  Level Salt Lake Center
Wed 03:30:46 PM 45.8961 -106.3206 297° West 325 374 36,000  Level Salt Lake Center
Wed 03:31:48 PM 45.9383 -106.4372 298° West 328 377 36,000  Level Salt Lake Center
Wed 03:32:50 PM 45.9797 -106.5528 297° West 328 377 36,000  Level Salt Lake Center
Wed 03:33:52 PM 46.0197 -106.6697 296° West 328 377 36,000  Level Salt Lake Center
Wed 03:34:54 PM 46.0681 -106.8092 297° West 326 375 36,000  Level Salt Lake Center
Wed 03:35:57 PM 46.1083 -106.9250 297° West 326 375 36,000  Level Salt Lake Center
Wed 03:36:59 PM 46.1481 -107.0406 296° West 324 373 36,000  Level Salt Lake Center
Wed 03:38:01 PM 46.1894 -107.1586 297° West 328 377 36,000  Level Salt Lake Center
Wed 03:39:03 PM 46.2289 -107.2767 296° West 328 377 36,000  Level Salt Lake Center
Wed 03:40:05 PM 46.2772 -107.4175 296° West 329 379 36,000  Level Salt Lake Center
Wed 03:41:07 PM 46.3169 -107.5339 296° West 325 374 36,000  Level Salt Lake Center
Wed 03:42:09 PM 46.3561 -107.6492 296° West 320 368 36,000  Level Salt Lake Center
Wed 03:43:11 PM 46.3947 -107.7642 296° West 319 367 36,000  Level Salt Lake Center
Wed 03:44:13 PM 46.4331 -107.8794 296° West 319 367 36,000  Level Salt Lake Center
Wed 03:45:15 PM 46.4711 -107.9939 296° West 317 365 36,000  Level Salt Lake Center
Wed 03:46:17 PM 46.5161 -108.1297 296° West 314 361 36,000  Level Salt Lake Center
Wed 03:47:19 PM 46.5542 -108.2439 296° West 316 364 36,000  Level Salt Lake Center
Wed 03:49:23 PM 46.6283 -108.4708 296° West 312 359 36,000  Level Salt Lake Center
Wed 03:50:25 PM 46.6697 -108.5806 299° West 312 359 36,000  Level Salt Lake Center
Wed 03:51:27 PM 46.7267 -108.6781 310° West 317 365 36,000  Level Salt Lake Center
Wed 03:52:29 PM 46.8203 -108.7442 334° Northwest 315 362 36,000 48 Level Salt Lake Center
Wed 03:53:31 PM 46.9106 -108.7478 358° North 324 373 36,100  Climbing Salt Lake Center
Wed 03:54:33 PM 46.9844 -108.8089 331° Northwest 313 360 36,000 -97 Descending Salt Lake Center
Wed 03:55:35 PM 47.0403 -108.8997 312° West 305 351 35,900 48 Descending Salt Lake Center
Wed 03:56:37 PM 47.0858 -109.0231 299° West 302 348 36,100 97 Climbing Salt Lake Center
Wed 03:57:39 PM 47.1194 -109.1353 294° West 302 348 36,100 -24 Level Salt Lake Center
Wed 03:59:00 PM 47.1562 -109.3023 288° West  Level FlightAware Approximate
Wed 04:00:46 PM 47.2144 -109.4769 288° West 302 348 36,000  Level Salt Lake Center
Wed 04:01:48 PM 47.2422 -109.5950 289° West 306 352 36,000  Level Salt Lake Center
Wed 04:02:50 PM 47.2783 -109.7356 291° West 307 353 36,000  Level Salt Lake Center
Wed 04:03:52 PM 47.3083 -109.8533 291° West 309 356 36,000  Level Salt Lake Center
Wed 04:04:53 PM 47.3378 -109.9736 290° West 311 358 36,000  Level Salt Lake Center
Wed 04:05:55 PM 47.3681 -110.0925 291° West 311 358 36,000  Level Salt Lake Center
Wed 04:06:00 PM 47.3428 -110.1720 288° West  Level FlightAware Approximate
Wed 04:06:57 PM 47.3978 -110.2117 290° West 311 358 36,000  Level Salt Lake Center
Wed 04:07:59 PM 47.4269 -110.3322 290° West 313 360 36,000  Level Salt Lake Center
Wed 04:09:01 PM 47.4628 -110.4744 290° West 309 356 36,000  Level Salt Lake Center
Wed 04:10:03 PM 47.4933 -110.5939 291° West 311 358 36,000  Level Salt Lake Center
Wed 04:11:05 PM 47.5219 -110.7128 290° West 309 356 36,000  Level Salt Lake Center
Wed 04:12:07 PM 47.5497 -110.8319 289° West 308 354 36,000  Level Salt Lake Center
Wed 04:13:09 PM 47.5789 -110.9511 290° West 310 357 36,000  Level Salt Lake Center
Wed 04:14:11 PM 47.6075 -111.0697 290° West 310 357 36,000  Level Salt Lake Center
Wed 04:15:13 PM 47.6389 -111.2108 288° West 310 357 36,000  Level Salt Lake Center
Wed 04:16:15 PM 47.6656 -111.3306 288° West 310 357 36,000  Level Salt Lake Center
Wed 04:17:17 PM 47.6958 -111.4439 292° West 309 356 36,000  Level Salt Lake Center
Wed 04:18:20 PM 47.7233 -111.5614 289° West 306 352 36,000  Level Salt Lake Center
Wed 04:19:20 PM 47.7550 -111.7019 289° West 303 349 36,000  Level Salt Lake Center
Wed 04:20:22 PM 47.7828 -111.8192 289° West 302 348 36,000  Level Salt Lake Center
Wed 04:21:24 PM 47.8094 -111.9353 289° West 299 344 36,000  Level Salt Lake Center
Wed 04:22:26 PM 47.8347 -112.0544 288° West 301 346 36,000 -435 Level Salt Lake Center
Wed 04:23:28 PM 47.8628 -112.1744 289° West 306 352 35,100 -1,161 Descending Salt Lake Center
Wed 04:24:30 PM 47.8936 -112.3053 289° West 326 375 33,600 -1,887 Descending Salt Lake Center
Wed 04:25:32 PM 47.9319 -112.4781 288° West 357 411 31,200 -2,129 Descending Salt Lake Center
Wed 04:26:34 PM 47.9669 -112.6339 289° West 376 433 29,200 -1,548 Descending Salt Lake Center
Wed 04:27:36 PM 47.9978 -112.7792 288° West 371 427 28,000 -1,659 Descending Salt Lake Center
Wed 04:28:37 PM 48.0303 -112.9247 289° West 370 426 25,800 -2,146 Descending Salt Lake Center
Wed 04:29:39 PM 48.0619 -113.0689 288° West 368 423 23,600 -2,274 Descending Salt Lake Center
Wed 04:30:41 PM 48.0925 -113.2089 288° West 359 413 21,100 -2,419 Descending Salt Lake Center
Wed 04:31:43 PM 48.1214 -113.3431 288° West 346 398 18,600 -2,419 Descending Salt Lake Center
Wed 04:32:45 PM 48.1469 -113.4658 287° West 320 368 16,100 -1,742 Descending Salt Lake Center
Wed 04:33:47 PM 48.1764 -113.6033 288° West 296 341 15,000 -532 Descending Salt Lake Center
Wed 04:34:49 PM 48.1997 -113.7128 288° West 282 325 15,000  Level Salt Lake Center
Wed 04:35:50 PM 48.2214 -113.8178 287° West 270 311 15,000 -1,463 Level Salt Lake Center
Wed 04:36:52 PM 48.2408 -113.9128 287° West 247 284 12,000 -2,855 Descending Salt Lake Center
Wed 04:37:54 PM 48.2625 -114.0183 287° West 255 293 9,100 -2,274 Descending Salt Lake Center
Wed 04:38:56 PM 48.2675 -114.1367 274° West 248 285 7,300 -1,306 Descending Salt Lake Center
Wed 04:39:58 PM 48.2550 -114.2092 256° West 212 244 6,400 -1,220 Descending Salt Lake Center
Wed 04:40:59 PM 48.2828 -114.2333 330° Northwest 172 198 4,800 -1,024 Descending Salt Lake Center
Wed 04:42:01 PM 48.3125 -114.2000 37° Northeast 147 169 4,300 -581 Descending Salt Lake Center
Wed 04:43:03 PM 48.3356 -114.2231 326° Northwest 132 152 3,600 -677 Descending Salt Lake Center
Wed 04:44:05 PM 48.3139 -114.2519 222° Southwest 114 131 2,900 -677 Descending Salt Lake Center

Login

Don't have an account? Register now (free) for customized features, flight alerts, and more!